PortugalFixed distance
MIUT - Madeira Island Ultra Trail 60 km
27 Apr2024
Distance
58.5km
Finishers
469352 men117 women
Winning time
6:07:41h
Median pace
5.54km/h
Pace distribution
469 finishers · 3.68–9.55 km/h · mean 5.73
Every finisher ran the same 58.5 km course, so these paces are directly comparable.
Histogram of finisher pace. 469 finishers ranged from 3.68 to 9.55 kilometres per hour, with a mean of 5.73 and a median of 5.54. The busiest band is 5.0 to 5.5 kilometres per hour, with 95 finishers.
Results
Ranks 201–250 of 469
| Rank | Runner | Time | Pace | Cat. | Placing |
|---|---|---|---|---|---|
| 201 | Trail-Maniacs.CH | 10:11:01h | 5.75 | W40 | 42nd F · 7th W40 |
| 202 | École de Trail | 10:12:16h | 5.73 | W23 | 43rd F · 22nd W23 |
| 203 | Gondel 7 | 10:12:59h | 5.73 | M40 | 160th M · 37th M40 |
| 204 | Gondel 7 | 10:13:00h | 5.73 | W35 | 44th F · 6th W35 |
| 205 | ÉLJ-Szeress-Fuss | 10:13:15h | 5.72 | MU23 | 161st M · 2nd MU23 |
| 206 | *Cambernon | 10:13:37h | 5.72 | M23 | 162nd M · 56th M23 |
| 207 | Tiba | 10:15:26h | 5.70 | M50 | 163rd M · 11th M50 |
| 208 | MY Kinetic Team | 10:16:25h | 5.69 | M23 | 164th M · 57th M23 |
| 209 | LIZ Runners | 10:16:56h | 5.69 | M45 | 165th M · 22nd M45 |
| 210 | *Oxford | 10:17:08h | 5.69 | W23 | 45th F · 23rd W23 |
| 211 | *Golbey | 10:17:29h | 5.68 | M50 | 166th M · 12th M50 |
| 212 | *Brasov | 10:17:46h | 5.68 | W45 | 46th F · 5th W45 |
| 213 | *Wavrin | 10:18:02h | 5.68 | M40 | 167th M · 38th M40 |
| 214 | *Bucharest | 10:18:56h | 5.67 | W35 | 47th F · 7th W35 |
| 215 | *Onnen | 10:19:13h | 5.67 | M45 | 168th M · 23rd M45 |
| 216 | *Leiria | 10:19:44h | 5.66 | W40 | 48th F · 8th W40 |
| 216 | Club Sport Maritimo | 10:19:44h | 5.66 | M45 | 169th M · 24th M45 |
| 218 | *Sallanches | 10:22:21h | 5.64 | M23 | 170th M · 58th M23 |
| 219 | DZG Runners Zgorzelec | 10:24:16h | 5.62 | M50 | 171st M · 13th M50 |
| 219 | DZG Runners Zgorzelec | 10:24:16h | 5.62 | M35 | 171st M · 28th M35 |
| 219 | DZG Runners Zgorzelec | 10:24:16h | 5.62 | M45 | 171st M · 25th M45 |
| 222 | Kenya Team | 10:25:06h | 5.62 | M23 | 174th M · 59th M23 |
| 223 | Madeira Rent - Run Lik... | 10:25:18h | 5.61 | M40 | 175th M · 39th M40 |
| 224 | Totalenergies PT | 10:25:27h | 5.61 | M40 | 176th M · 40th M40 |
| 225 | S/L TA Rennes | 10:25:44h | 5.61 | WU23 | 49th F · 1st WU23 |
| 226 | *Badajoz | 10:26:32h | 5.60 | M45 | 177th M · 26th M45 |
| 227 | MY Kinetic Team | 10:26:39h | 5.60 | M23 | 178th M · 60th M23 |
| 228 | Gdalcoutim-Trailrunners | 10:27:17h | 5.60 | M50 | 179th M · 14th M50 |
| 229 | Stravistas Venda do Pi... | 10:27:30h | 5.59 | M50 | 180th M · 15th M50 |
| 230 | Impulsion Trail / Espr... | 10:29:59h | 5.57 | M45 | 181st M · 27th M45 |
| 231 | Fiemme Namaste ASD | 10:31:05h | 5.56 | M23 | 182nd M · 61st M23 |
| 232 | LAS Cabras Azules | 10:31:35h | 5.56 | M45 | 183rd M · 28th M45 |
| 233 | SC Orvault | 10:31:37h | 5.56 | M23 | 184th M · 62nd M23 |
| 234 | *Saint Paul T8Rois Cha... | 10:32:28h | 5.55 | M45 | 185th M · 29th M45 |
| 235 | Trencafites | 10:33:09h | 5.54 | M55 | 186th M · 7th M55 |
| 236 | *London | 10:33:31h | 5.54 | W35 | 50th F · 8th W35 |
| 236 | *Luleå | 10:33:31h | 5.54 | M23 | 187th M · 63rd M23 |
| 238 | *Baie-Saint-Paul | 10:33:54h | 5.54 | W23 | 51st F · 24th W23 |
| 239 | Clube de Montanha do F... | 10:34:38h | 5.53 | M35 | 188th M · 29th M35 |
| 240 | *Lisboa | 10:35:36h | 5.52 | M35 | 189th M · 30th M35 |
| 241 | *Kyiv | 10:36:41h | 5.51 | M45 | 190th M · 30th M45 |
| 242 | *Caniço | 10:36:56h | 5.51 | M35 | 191st M · 31st M35 |
| 243 | BK Maraton Beciklin / ... | 10:38:00h | 5.50 | M23 | 192nd M · 64th M23 |
| 244 | Aran Trail Runners | 10:38:04h | 5.50 | W40 | 52nd F · 9th W40 |
| 245 | Chateauneuf/Athle | 10:38:18h | 5.50 | M45 | 193rd M · 31st M45 |
| 246 | *Nantes | 10:38:26h | 5.50 | M35 | 194th M · 32nd M35 |
| 247 | Sport Guru | 10:38:34h | 5.50 | W23 | 53rd F · 25th W23 |
| 248 | Runpassiontrail | 10:40:31h | 5.48 | W35 | 54th F · 9th W35 |
| 249 | ACD Jardim da Serra | 10:41:27h | 5.47 | W50 | 55th F · 4th W50 |
| 250 | *Dafundo | 10:42:25h | 5.46 | M55 | 195th M · 8th M55 |
- 201Trail-Maniacs.CH42nd F · 7th W40Time10:11:01hPace5.75Cat.W40
- 202École de Trail43rd F · 22nd W23Time10:12:16hPace5.73Cat.W23
- 203Gondel 7160th M · 37th M40Time10:12:59hPace5.73Cat.M40
- 204Gondel 744th F · 6th W35Time10:13:00hPace5.73Cat.W35
- 205ÉLJ-Szeress-Fuss161st M · 2nd MU23Time10:13:15hPace5.72Cat.MU23
- 206*Cambernon162nd M · 56th M23Time10:13:37hPace5.72Cat.M23
- 207Tiba163rd M · 11th M50Time10:15:26hPace5.70Cat.M50
- 208MY Kinetic Team164th M · 57th M23Time10:16:25hPace5.69Cat.M23
- 209LIZ Runners165th M · 22nd M45Time10:16:56hPace5.69Cat.M45
- 210*Oxford45th F · 23rd W23Time10:17:08hPace5.69Cat.W23
- 211*Golbey166th M · 12th M50Time10:17:29hPace5.68Cat.M50
- 212*Brasov46th F · 5th W45Time10:17:46hPace5.68Cat.W45
- 213*Wavrin167th M · 38th M40Time10:18:02hPace5.68Cat.M40
- 214*Bucharest47th F · 7th W35Time10:18:56hPace5.67Cat.W35
- 215*Onnen168th M · 23rd M45Time10:19:13hPace5.67Cat.M45
- 216*Leiria48th F · 8th W40Time10:19:44hPace5.66Cat.W40
- 216Club Sport Maritimo169th M · 24th M45Time10:19:44hPace5.66Cat.M45
- 218*Sallanches170th M · 58th M23Time10:22:21hPace5.64Cat.M23
- 219DZG Runners Zgorzelec171st M · 13th M50Time10:24:16hPace5.62Cat.M50
- 219DZG Runners Zgorzelec171st M · 28th M35Time10:24:16hPace5.62Cat.M35
- 219DZG Runners Zgorzelec171st M · 25th M45Time10:24:16hPace5.62Cat.M45
- 222Kenya Team174th M · 59th M23Time10:25:06hPace5.62Cat.M23
- 223Madeira Rent - Run Lik...175th M · 39th M40Time10:25:18hPace5.61Cat.M40
- 224Totalenergies PT176th M · 40th M40Time10:25:27hPace5.61Cat.M40
- 225S/L TA Rennes49th F · 1st WU23Time10:25:44hPace5.61Cat.WU23
- 226*Badajoz177th M · 26th M45Time10:26:32hPace5.60Cat.M45
- 227MY Kinetic Team178th M · 60th M23Time10:26:39hPace5.60Cat.M23
- 228Gdalcoutim-Trailrunners179th M · 14th M50Time10:27:17hPace5.60Cat.M50
- 229Stravistas Venda do Pi...180th M · 15th M50Time10:27:30hPace5.59Cat.M50
- 230Impulsion Trail / Espr...181st M · 27th M45Time10:29:59hPace5.57Cat.M45
- 231Fiemme Namaste ASD182nd M · 61st M23Time10:31:05hPace5.56Cat.M23
- 232LAS Cabras Azules183rd M · 28th M45Time10:31:35hPace5.56Cat.M45
- 233SC Orvault184th M · 62nd M23Time10:31:37hPace5.56Cat.M23
- 234*Saint Paul T8Rois Cha...185th M · 29th M45Time10:32:28hPace5.55Cat.M45
- 235Trencafites186th M · 7th M55Time10:33:09hPace5.54Cat.M55
- 236*London50th F · 8th W35Time10:33:31hPace5.54Cat.W35
- 236*Luleå187th M · 63rd M23Time10:33:31hPace5.54Cat.M23
- 238*Baie-Saint-Paul51st F · 24th W23Time10:33:54hPace5.54Cat.W23
- 239Clube de Montanha do F...188th M · 29th M35Time10:34:38hPace5.53Cat.M35
- 240*Lisboa189th M · 30th M35Time10:35:36hPace5.52Cat.M35
- 241*Kyiv190th M · 30th M45Time10:36:41hPace5.51Cat.M45
- 242*Caniço191st M · 31st M35Time10:36:56hPace5.51Cat.M35
- 243BK Maraton Beciklin / ...192nd M · 64th M23Time10:38:00hPace5.50Cat.M23
- 244Aran Trail Runners52nd F · 9th W40Time10:38:04hPace5.50Cat.W40
- 245Chateauneuf/Athle193rd M · 31st M45Time10:38:18hPace5.50Cat.M45
- 246*Nantes194th M · 32nd M35Time10:38:26hPace5.50Cat.M35
- 247Sport Guru53rd F · 25th W23Time10:38:34hPace5.50Cat.W23
- 248Runpassiontrail54th F · 9th W35Time10:40:31hPace5.48Cat.W35
- 249ACD Jardim da Serra55th F · 4th W50Time10:41:27hPace5.47Cat.W50
- 250*Dafundo195th M · 8th M55Time10:42:25hPace5.46Cat.M55
Showing ranks 201–250 of 469